createdAt,value
2022-10-04T00:01:36.702Z,99267.28
2022-10-04T00:04:02.859Z,99259.66
2022-10-04T00:06:28.943Z,99248.75
2022-10-04T00:08:55.029Z,99247.53
2022-10-04T00:11:21.134Z,99249.72
2022-10-04T00:13:47.216Z,99247.94
2022-10-04T00:16:13.366Z,99243.47
2022-10-04T00:18:39.546Z,99245.28
2022-10-04T00:21:05.670Z,99238.59
2022-10-04T00:23:31.744Z,99236.81
2022-10-04T00:25:57.857Z,99229.56
2022-10-04T00:28:23.985Z,99235.97
2022-10-04T00:30:50.106Z,99240.41
2022-10-04T00:33:16.208Z,99242.22
2022-10-04T00:35:42.306Z,99246.13
2022-10-04T00:38:08.389Z,99249.72
2022-10-04T00:40:34.497Z,99252.13
2022-10-04T00:43:00.589Z,99242.09
2022-10-04T00:45:26.676Z,99237.09
2022-10-04T00:47:53.276Z,99241.78
2022-10-04T00:50:19.390Z,99250.00
2022-10-04T00:52:45.498Z,99252.66
2022-10-04T00:55:11.606Z,99246.84
2022-10-04T00:57:37.714Z,99249.91
2022-10-04T01:00:03.917Z,99251.72
2022-10-04T01:02:30.097Z,99239.19
2022-10-04T01:04:56.286Z,99225.81
2022-10-04T01:07:22.382Z,99226.50
2022-10-04T01:09:48.496Z,99217.56
2022-10-04T01:12:14.595Z,99218.81
2022-10-04T01:14:40.701Z,99224.38
2022-10-04T01:17:06.826Z,99219.25
2022-10-04T01:19:32.935Z,99216.59
2022-10-04T01:21:59.050Z,99204.06
2022-10-04T01:24:25.153Z,99194.41
2022-10-04T01:26:51.243Z,99192.63
2022-10-04T01:29:17.339Z,99193.44
2022-10-04T01:31:44.287Z,99195.28
2022-10-04T01:34:10.584Z,99194.63
2022-10-04T01:36:36.672Z,99185.31
2022-10-04T01:39:02.788Z,99190.47
2022-10-04T01:41:28.871Z,99195.06
2022-10-04T01:43:54.968Z,99189.75
2022-10-04T01:46:21.126Z,99179.59
2022-10-04T01:48:47.245Z,99175.28
2022-10-04T01:51:13.329Z,99181.69
2022-10-04T01:53:39.501Z,99175.69
2022-10-04T01:56:05.596Z,99177.25
2022-10-04T01:58:31.693Z,99171.28
2022-10-04T02:00:57.848Z,99177.13
2022-10-04T02:03:23.973Z,99167.34
2022-10-04T02:05:50.064Z,99171.38
2022-10-04T02:08:16.172Z,99164.56
2022-10-04T02:10:43.753Z,99158.75
2022-10-04T02:13:09.970Z,99154.97
2022-10-04T02:15:36.079Z,99147.88
2022-10-04T02:18:02.160Z,99149.75
2022-10-04T02:20:28.269Z,99148.50
2022-10-04T02:22:54.390Z,99144.72
2022-10-04T02:25:20.480Z,99137.63
2022-10-04T02:27:46.570Z,99135.00
2022-10-04T02:30:12.704Z,99139.97
2022-10-04T02:32:38.806Z,99131.06
2022-10-04T02:35:04.952Z,99144.06
2022-10-04T02:37:31.069Z,99144.06
2022-10-04T02:39:57.156Z,99139.22
2022-10-04T02:42:23.253Z,99138.25
2022-10-04T02:44:49.362Z,99137.00
2022-10-04T02:47:15.452Z,99143.94
2022-10-04T02:49:41.549Z,99145.63
2022-10-04T02:52:08.158Z,99142.84
2022-10-04T02:54:34.265Z,99137.41
2022-10-04T02:57:00.370Z,99124.47
2022-10-04T02:59:26.477Z,99119.28
2022-10-04T03:01:52.656Z,99107.13
2022-10-04T03:04:18.797Z,99104.34
2022-10-04T03:06:44.905Z,99094.94
2022-10-04T03:09:10.983Z,99099.66
2022-10-04T03:11:37.075Z,99098.22
2022-10-04T03:14:03.195Z,99097.09
2022-10-04T03:16:29.347Z,99101.41
2022-10-04T03:18:55.502Z,99109.19
2022-10-04T03:21:21.707Z,99101.56
2022-10-04T03:23:47.805Z,99110.47
2022-10-04T03:26:13.900Z,99117.28
2022-10-04T03:28:40.012Z,99112.28
2022-10-04T03:31:06.203Z,99120.66
2022-10-04T03:33:32.337Z,99118.59
2022-10-04T03:35:58.973Z,99117.63
2022-10-04T03:38:25.057Z,99109.09
2022-10-04T03:40:51.172Z,99108.09
2022-10-04T03:43:17.279Z,99115.28
2022-10-04T03:45:43.421Z,99101.47
2022-10-04T03:48:09.533Z,99102.38
2022-10-04T03:50:35.625Z,99093.69
2022-10-04T03:53:01.726Z,99094.69
2022-10-04T03:55:27.813Z,99092.72
2022-10-04T03:57:53.961Z,99094.94
2022-10-04T04:00:20.051Z,99098.09
2022-10-04T04:02:46.496Z,99099.03
2022-10-04T04:05:12.697Z,99090.34
2022-10-04T04:07:38.797Z,99089.44
2022-10-04T04:10:04.927Z,99084.66
2022-10-04T04:12:31.051Z,99083.44
2022-10-04T04:14:57.313Z,99080.91
2022-10-04T04:17:23.410Z,99077.25
2022-10-04T04:19:49.533Z,99080.50
2022-10-04T04:22:15.635Z,99082.31
2022-10-04T04:24:41.723Z,99084.28
2022-10-04T04:27:07.817Z,99089.25
2022-10-04T04:29:33.908Z,99087.69
2022-10-04T04:32:00.162Z,99084.09
2022-10-04T04:34:26.388Z,99078.78
2022-10-04T04:36:52.501Z,99083.97
2022-10-04T04:39:18.594Z,99078.44
2022-10-04T04:41:49.514Z,99075.66
2022-10-04T04:44:16.510Z,99075.59
2022-10-04T04:46:42.683Z,99071.00
2022-10-04T04:49:08.804Z,99067.47
2022-10-04T04:51:34.890Z,99064.59
2022-10-04T04:54:00.985Z,99059.28
2022-10-04T04:56:27.095Z,99060.53
2022-10-04T04:58:53.193Z,99053.09
2022-10-04T05:01:19.342Z,99054.03
2022-10-04T05:03:45.851Z,99054.78
2022-10-04T05:06:11.938Z,99050.53
2022-10-04T05:08:41.410Z,99054.22
2022-10-04T05:11:07.773Z,99053.22
2022-10-04T05:13:33.861Z,99061.69
2022-10-04T05:16:00.031Z,99061.44
2022-10-04T05:18:26.196Z,99049.56
2022-10-04T05:20:52.301Z,99038.16
2022-10-04T05:23:18.525Z,99044.50
2022-10-04T05:25:44.633Z,99036.09
2022-10-04T05:28:10.786Z,99036.16
2022-10-04T05:30:36.913Z,99035.06
2022-10-04T05:33:03.041Z,99026.31
2022-10-04T05:35:29.137Z,99022.53
2022-10-04T05:37:55.249Z,99024.56
2022-10-04T05:40:21.901Z,99026.72
2022-10-04T05:42:48.093Z,99031.16
2022-10-04T05:45:14.260Z,99033.56
2022-10-04T05:47:40.609Z,99039.34
2022-10-04T05:50:06.725Z,99036.56
2022-10-04T05:52:33.978Z,99029.16
2022-10-04T05:55:00.102Z,99021.22
2022-10-04T05:57:26.261Z,99025.53
2022-10-04T05:59:52.373Z,99030.47
2022-10-04T06:02:18.561Z,99039.31
2022-10-04T06:04:44.770Z,99054.28
2022-10-04T06:07:10.873Z,99041.06
2022-10-04T06:09:36.972Z,99045.13
2022-10-04T06:12:03.069Z,99048.94
2022-10-04T06:14:29.153Z,99057.22
2022-10-04T06:16:55.312Z,99055.25
2022-10-04T06:19:21.458Z,99057.47
2022-10-04T06:21:47.555Z,99057.41
2022-10-04T06:24:13.681Z,99053.41
2022-10-04T06:26:39.778Z,99057.84
2022-10-04T06:29:05.891Z,99047.06
2022-10-04T06:31:32.205Z,99047.53
2022-10-04T06:33:58.295Z,99040.03
2022-10-04T06:36:24.453Z,99037.28
2022-10-04T06:38:50.592Z,99037.22
2022-10-04T06:41:16.677Z,99032.75
2022-10-04T06:43:42.827Z,99035.69
2022-10-04T06:46:10.028Z,99034.19
2022-10-04T06:48:36.187Z,99035.50
2022-10-04T06:51:02.291Z,99036.56
2022-10-04T06:53:28.495Z,99026.28
2022-10-04T06:55:54.639Z,99033.91
2022-10-04T06:58:20.720Z,99035.25
2022-10-04T07:00:46.918Z,99035.25
2022-10-04T07:03:13.339Z,99043.97
2022-10-04T07:05:39.513Z,99043.22
2022-10-04T07:08:05.673Z,99038.44
2022-10-04T07:10:31.783Z,99042.59
2022-10-04T07:12:58.068Z,99039.25
2022-10-04T07:15:24.184Z,99035.69
2022-10-04T07:17:50.289Z,99046.50
2022-10-04T07:20:16.383Z,99048.81
2022-10-04T07:22:42.509Z,99055.41
2022-10-04T07:25:08.610Z,99051.56
2022-10-04T07:27:34.713Z,99065.09
2022-10-04T07:30:00.826Z,99058.59
2022-10-04T07:32:26.978Z,99060.38
2022-10-04T07:34:53.076Z,99048.63
2022-10-04T07:37:19.202Z,99053.81
2022-10-04T07:39:45.304Z,99055.66
2022-10-04T07:42:11.393Z,99053.22
2022-10-04T07:44:37.901Z,99057.72
2022-10-04T07:47:04.213Z,99053.88
2022-10-04T07:49:30.344Z,99055.22
2022-10-04T07:51:56.539Z,99058.34
2022-10-04T07:54:22.714Z,99048.56
2022-10-04T07:56:48.971Z,99063.84
2022-10-04T07:59:15.122Z,99056.91
2022-10-04T08:01:41.767Z,99064.59
2022-10-04T08:04:08.122Z,99058.28
2022-10-04T08:06:34.239Z,99060.59
2022-10-04T08:09:00.341Z,99052.16
2022-10-04T08:11:26.432Z,99060.13
2022-10-04T08:13:52.686Z,99055.34
2022-10-04T08:16:18.853Z,99050.03
2022-10-04T08:18:44.948Z,99051.88
2022-10-04T08:21:11.066Z,99054.53
2022-10-04T08:23:37.178Z,99054.69
2022-10-04T08:26:06.010Z,99052.22
2022-10-04T08:28:32.170Z,99046.75
2022-10-04T08:30:58.323Z,99056.69
2022-10-04T08:33:24.456Z,99056.38
2022-10-04T08:35:50.566Z,99055.06
2022-10-04T08:38:16.653Z,99051.91
2022-10-04T08:40:42.748Z,99054.06
2022-10-04T08:43:08.941Z,99048.75
2022-10-04T08:45:35.037Z,99036.47
2022-10-04T08:48:01.471Z,99052.41
2022-10-04T08:50:27.857Z,99052.41
2022-10-04T08:52:53.972Z,99055.06
2022-10-04T08:55:20.122Z,99052.06
2022-10-04T08:57:46.245Z,99062.69
2022-10-04T09:00:12.650Z,99064.19
2022-10-04T09:02:38.769Z,99061.38
2022-10-04T09:05:04.928Z,99067.84
2022-10-04T09:07:31.026Z,99062.03
2022-10-04T09:09:57.113Z,99074.00
2022-10-04T09:12:23.515Z,99056.84
2022-10-04T09:14:49.603Z,99058.16
2022-10-04T09:17:19.784Z,99062.00
2022-10-04T09:19:48.040Z,99062.81
2022-10-04T09:22:14.136Z,99054.28
2022-10-04T09:24:40.223Z,99058.72
2022-10-04T09:27:06.349Z,99050.78
2022-10-04T09:29:32.445Z,99041.44
2022-10-04T09:31:58.541Z,99040.72
2022-10-04T09:34:24.653Z,99039.13
2022-10-04T09:36:50.750Z,99030.50
2022-10-04T09:39:31.258Z,99032.47
2022-10-04T09:41:57.556Z,99030.94
2022-10-04T09:44:23.661Z,99029.75
2022-10-04T09:46:53.304Z,99014.41
2022-10-04T09:49:22.344Z,99025.56
2022-10-04T09:51:48.426Z,99030.34
2022-10-04T09:54:14.508Z,99032.13
2022-10-04T09:56:40.950Z,99024.47
2022-10-04T09:59:07.285Z,99021.00
2022-10-04T10:01:33.414Z,99020.47
2022-10-04T10:03:59.538Z,99020.56
2022-10-04T10:06:25.665Z,99016.25
2022-10-04T10:08:51.752Z,99019.38
2022-10-04T10:11:17.866Z,99015.75
2022-10-04T10:13:43.972Z,99011.81
2022-10-04T10:16:10.084Z,99016.09
2022-10-04T10:18:36.203Z,99012.78
2022-10-04T10:21:02.322Z,99015.00
2022-10-04T10:23:28.411Z,99011.97
2022-10-04T10:25:54.507Z,99007.66
2022-10-04T10:28:20.660Z,99005.31
2022-10-04T10:30:46.895Z,99003.78
2022-10-04T10:33:13.072Z,99001.56
2022-10-04T10:35:39.171Z,98993.00
2022-10-04T10:38:05.272Z,99004.31
2022-10-04T10:40:31.379Z,98994.03
2022-10-04T10:42:57.468Z,98997.88
2022-10-04T10:45:23.558Z,98979.19
2022-10-04T10:47:50.187Z,98986.44
2022-10-04T10:50:16.265Z,98979.81
2022-10-04T10:52:42.369Z,98989.28
2022-10-04T10:55:08.514Z,98988.91
2022-10-04T10:57:34.609Z,98989.19
2022-10-04T11:00:00.701Z,98980.44
2022-10-04T11:02:47.665Z,98978.84
2022-10-04T11:05:12.888Z,98978.19
2022-10-04T11:07:39.011Z,98969.88
2022-10-04T11:10:05.111Z,98975.28
2022-10-04T11:12:31.204Z,98978.59
2022-10-04T11:14:57.303Z,98975.97
2022-10-04T11:17:23.397Z,98977.44
2022-10-04T11:19:49.497Z,98976.69
2022-10-04T11:22:16.095Z,98985.06
2022-10-04T11:24:42.175Z,98980.00
2022-10-04T11:27:08.262Z,98981.06
2022-10-04T11:29:34.366Z,98976.16
2022-10-04T11:32:00.461Z,98975.41
2022-10-04T11:34:26.553Z,98976.72
2022-10-04T11:36:52.664Z,98975.25
2022-10-04T11:39:18.777Z,98969.22
2022-10-04T11:41:44.872Z,98973.34
2022-10-04T11:44:11.011Z,98970.91
2022-10-04T11:46:37.129Z,98968.69
2022-10-04T11:49:03.254Z,98961.84
2022-10-04T11:51:29.364Z,98966.22
2022-10-04T11:53:55.478Z,98957.66
2022-10-04T11:56:21.577Z,98950.91
2022-10-04T11:58:47.684Z,98953.81
2022-10-04T12:01:13.773Z,98955.09
2022-10-04T12:03:39.918Z,98949.78
2022-10-04T12:06:06.062Z,98954.09
2022-10-04T12:08:32.168Z,98956.84
2022-10-04T12:10:58.261Z,98949.47
2022-10-04T12:13:24.368Z,98944.63
2022-10-04T12:15:50.517Z,98936.75
2022-10-04T12:18:16.639Z,98926.94
2022-10-04T12:20:42.758Z,98926.97
2022-10-04T12:23:08.849Z,98926.56
2022-10-04T12:25:34.944Z,98911.97
2022-10-04T12:28:01.092Z,98913.66
2022-10-04T12:30:27.237Z,98909.50
2022-10-04T12:32:57.794Z,98915.72
2022-10-04T12:35:24.374Z,98916.75
2022-10-04T12:37:50.455Z,98919.66
2022-10-04T12:40:16.622Z,98920.69
2022-10-04T12:42:42.746Z,98918.63
2022-10-04T12:45:08.843Z,98906.72
2022-10-04T12:47:34.947Z,98900.31
2022-10-04T12:50:01.420Z,98907.34
2022-10-04T12:52:27.542Z,98888.41
2022-10-04T12:54:53.630Z,98899.72
2022-10-04T12:57:19.744Z,98885.53
2022-10-04T12:59:45.841Z,98892.97
2022-10-04T13:02:11.964Z,98888.63
2022-10-04T13:04:38.118Z,98880.59
2022-10-04T13:07:04.201Z,98889.28
2022-10-04T13:09:30.280Z,98892.56
2022-10-04T13:11:56.400Z,98880.00
2022-10-04T13:14:22.498Z,98883.72
2022-10-04T13:19:34.699Z,98878.16
2022-10-04T13:22:00.795Z,98866.00
2022-10-04T13:24:26.891Z,98854.03
2022-10-04T13:26:53.365Z,98866.81
2022-10-04T13:29:19.466Z,98858.38
2022-10-04T13:31:45.943Z,98858.78
2022-10-04T13:34:12.227Z,98861.28
2022-10-04T13:36:38.319Z,98864.34
2022-10-04T13:39:04.411Z,98856.50
2022-10-04T13:41:30.539Z,98866.41
2022-10-04T13:43:56.666Z,98861.03
2022-10-04T13:46:22.771Z,98862.28
2022-10-04T13:48:48.879Z,98863.72
2022-10-04T13:51:14.975Z,98858.34
2022-10-04T13:53:41.063Z,98863.72
2022-10-04T13:56:07.161Z,98863.91
2022-10-04T13:58:33.258Z,98856.06
2022-10-04T14:00:59.388Z,98848.66
2022-10-04T14:03:25.538Z,98851.13
2022-10-04T14:05:51.698Z,98849.88
2022-10-04T14:08:17.792Z,98850.72
2022-10-04T14:10:43.910Z,98863.31
2022-10-04T14:13:10.005Z,98854.84
2022-10-04T14:15:36.101Z,98851.13
2022-10-04T14:18:02.204Z,98837.72
2022-10-04T14:20:28.306Z,98835.66
2022-10-04T14:22:54.414Z,98839.16
2022-10-04T14:25:21.611Z,98838.53
2022-10-04T14:27:47.811Z,98842.66
2022-10-04T14:30:13.909Z,98839.91
2022-10-04T14:32:40.514Z,98845.50
2022-10-04T14:35:06.629Z,98837.22
2022-10-04T14:37:32.722Z,98830.84
2022-10-04T14:39:58.832Z,98833.69
2022-10-04T14:42:24.928Z,98827.44
2022-10-04T14:44:51.007Z,98829.03
2022-10-04T14:47:17.118Z,98840.28
2022-10-04T14:49:43.233Z,98838.34
2022-10-04T14:52:09.348Z,98833.28
2022-10-04T14:54:35.453Z,98837.88
2022-10-04T14:57:01.527Z,98825.41
2022-10-04T14:59:27.631Z,98822.81
2022-10-04T15:01:53.741Z,98831.56
2022-10-04T15:04:19.915Z,98828.75
2022-10-04T15:06:46.344Z,98805.09
2022-10-04T15:09:16.046Z,98805.13
2022-10-04T15:11:42.144Z,98796.91
2022-10-04T15:14:08.233Z,98808.94
2022-10-04T15:16:34.412Z,98803.78
2022-10-04T15:19:00.566Z,98805.09
2022-10-04T15:21:31.461Z,98816.13
2022-10-04T15:23:58.429Z,98810.84
2022-10-04T15:26:24.529Z,98812.41
2022-10-04T15:28:50.625Z,98808.03
2022-10-04T15:31:16.839Z,98816.22
2022-10-04T15:33:42.941Z,98811.41
2022-10-04T15:36:09.218Z,98808.94
2022-10-04T15:38:35.358Z,98808.22
2022-10-04T15:41:01.437Z,98806.25
2022-10-04T15:43:27.527Z,98804.16
2022-10-04T15:45:53.690Z,98810.81
2022-10-04T15:48:19.847Z,98805.66
2022-10-04T15:50:45.940Z,98806.63
2022-10-04T15:53:15.042Z,98803.88
2022-10-04T15:55:45.070Z,98813.63
2022-10-04T15:58:11.152Z,98809.25
2022-10-04T16:00:37.705Z,98813.59
2022-10-04T16:03:03.793Z,98818.97
2022-10-04T16:05:29.870Z,98816.31
2022-10-04T16:07:55.992Z,98817.59
2022-10-04T16:10:22.072Z,98829.47
2022-10-04T16:12:48.163Z,98822.56
2022-10-04T16:15:14.286Z,98808.03
2022-10-04T16:17:40.388Z,98804.44
2022-10-04T16:20:06.486Z,98818.81
2022-10-04T16:22:32.600Z,98826.78
2022-10-04T16:24:58.680Z,98829.09
2022-10-04T16:27:24.760Z,98839.09
2022-10-04T16:30:08.067Z,98833.63
2022-10-04T16:32:37.410Z,98837.97
2022-10-04T16:35:03.562Z,98834.78
2022-10-04T16:37:29.657Z,98827.63
2022-10-04T16:39:56.009Z,98838.81
2022-10-04T16:42:22.445Z,98828.97
2022-10-04T16:44:48.528Z,98824.06
2022-10-04T16:47:14.630Z,98820.38
2022-10-04T16:49:41.456Z,98831.53
2022-10-04T16:52:07.650Z,98827.00
2022-10-04T16:54:33.736Z,98823.31
2022-10-04T16:56:59.829Z,98816.06
2022-10-04T16:59:25.929Z,98814.00
2022-10-04T17:01:55.186Z,98814.41
2022-10-04T17:04:22.615Z,98818.94
2022-10-04T17:06:49.201Z,98821.03
2022-10-04T17:09:15.537Z,98824.13
2022-10-04T17:11:41.781Z,98816.28
2022-10-04T17:14:07.883Z,98819.19
2022-10-04T17:16:33.985Z,98821.66
2022-10-04T17:19:00.252Z,98820.59
2022-10-04T17:21:26.331Z,98816.56
2022-10-04T17:23:52.417Z,98819.66
2022-10-04T17:26:18.517Z,98821.25
2022-10-04T17:28:44.603Z,98808.66
2022-10-04T17:31:10.761Z,98812.75
2022-10-04T17:33:36.898Z,98810.91
2022-10-04T17:36:04.976Z,98807.16
2022-10-04T17:38:31.114Z,98799.72
2022-10-04T17:40:59.749Z,98818.16
2022-10-04T17:43:25.885Z,98814.44
2022-10-04T17:45:51.999Z,98824.47
2022-10-04T17:48:18.138Z,98821.75
2022-10-04T17:50:44.220Z,98823.34
2022-10-04T17:53:10.311Z,98816.69
2022-10-04T17:55:36.428Z,98821.31
2022-10-04T17:58:02.802Z,98827.53
2022-10-04T18:00:28.917Z,98824.63
2022-10-04T18:02:55.079Z,98827.41
2022-10-04T18:05:21.203Z,98822.41
2022-10-04T18:07:47.369Z,98820.69
2022-10-04T18:10:13.467Z,98807.59
2022-10-04T18:12:39.590Z,98809.38
2022-10-04T18:15:05.698Z,98802.00
2022-10-04T18:17:31.817Z,98801.66
2022-10-04T18:19:57.980Z,98800.38
2022-10-04T18:22:24.068Z,98803.22
2022-10-04T18:24:50.247Z,98799.91
2022-10-04T18:27:16.321Z,98797.38
2022-10-04T18:29:42.425Z,98799.00
2022-10-04T18:32:08.626Z,98795.34
2022-10-04T18:34:34.765Z,98791.06
2022-10-04T18:37:00.863Z,98791.47
2022-10-04T18:39:26.973Z,98798.00
2022-10-04T18:41:53.073Z,98801.25
2022-10-04T18:44:19.204Z,98799.22
2022-10-04T18:46:45.684Z,98799.53
2022-10-04T18:49:12.098Z,98809.09
2022-10-04T18:51:38.186Z,98813.56
2022-10-04T18:54:04.279Z,98818.66
2022-10-04T18:56:33.942Z,98819.31
2022-10-04T18:59:00.579Z,98830.69
2022-10-04T19:01:26.895Z,98819.16
2022-10-04T19:03:53.214Z,98831.88
2022-10-04T19:06:19.324Z,98819.53
2022-10-04T19:08:46.015Z,98819.75
2022-10-04T19:11:12.095Z,98818.72
2022-10-04T19:13:38.331Z,98812.09
2022-10-04T19:16:04.488Z,98813.38
2022-10-04T19:18:30.993Z,98816.03
2022-10-04T19:20:57.235Z,98823.22
2022-10-04T19:23:23.425Z,98817.91
2022-10-04T19:26:17.575Z,98831.63
2022-10-04T19:28:35.871Z,98830.59
2022-10-04T19:31:02.123Z,98833.25
2022-10-04T19:33:28.327Z,98831.63
2022-10-04T19:35:54.424Z,98826.91
2022-10-04T19:38:20.582Z,98828.75
2022-10-04T19:40:46.697Z,98827.94
2022-10-04T19:43:12.960Z,98818.28
2022-10-04T19:45:39.116Z,98815.16
2022-10-04T19:48:05.261Z,98803.28
2022-10-04T19:50:31.506Z,98813.69
2022-10-04T19:52:57.624Z,98807.06
2022-10-04T19:55:23.729Z,98820.63
2022-10-04T19:57:49.855Z,98817.38
2022-10-04T20:00:15.993Z,98807.88
2022-10-04T20:02:47.437Z,98808.69
2022-10-04T20:05:14.792Z,98809.41
2022-10-04T20:07:40.886Z,98818.06
2022-10-04T20:10:07.014Z,98810.88
2022-10-04T20:12:33.482Z,98805.13
2022-10-04T20:14:59.584Z,98801.81
2022-10-04T20:17:25.675Z,98812.09
2022-10-04T20:19:51.827Z,98808.78
2022-10-04T20:22:17.922Z,98805.94
2022-10-04T20:24:44.021Z,98813.44
2022-10-04T20:27:10.150Z,98809.94
2022-10-04T20:29:43.796Z,98814.03
2022-10-04T20:32:09.894Z,98824.09
2022-10-04T20:34:36.031Z,98818.72
2022-10-04T20:37:02.163Z,98829.38
2022-10-04T20:39:28.257Z,98828.63
2022-10-04T20:41:54.401Z,98824.50
2022-10-04T20:44:20.499Z,98815.47
2022-10-04T20:46:47.117Z,98822.00
2022-10-04T20:49:13.686Z,98821.84
2022-10-04T20:51:39.773Z,98810.91
2022-10-04T20:54:05.905Z,98814.38
2022-10-04T20:56:32.051Z,98816.06
2022-10-04T20:58:58.181Z,98809.06
2022-10-04T21:01:24.332Z,98798.56
2022-10-04T21:03:50.476Z,98801.59
2022-10-04T21:06:16.595Z,98805.31
2022-10-04T21:08:42.777Z,98813.63
2022-10-04T21:11:08.908Z,98808.78
2022-10-04T21:13:35.012Z,98811.63
2022-10-04T21:16:01.326Z,98807.69
2022-10-04T21:18:27.549Z,98799.69
2022-10-04T21:20:53.635Z,98807.88
2022-10-04T21:23:19.727Z,98806.56
2022-10-04T21:25:45.835Z,98803.84
2022-10-04T21:28:11.976Z,98795.25
2022-10-04T21:30:38.121Z,98793.63
2022-10-04T21:33:04.527Z,98791.34
2022-10-04T21:35:30.638Z,98786.66
2022-10-04T21:37:56.736Z,98789.75
2022-10-04T21:40:22.837Z,98781.66
2022-10-04T21:42:48.941Z,98786.19
2022-10-04T21:45:15.034Z,98787.38
2022-10-04T21:47:41.144Z,98799.31
2022-10-04T21:50:07.220Z,98790.41
2022-10-04T21:52:33.321Z,98792.81
2022-10-04T21:54:59.420Z,98780.69
2022-10-04T21:57:25.512Z,98780.84
2022-10-04T21:59:51.603Z,98797.47
2022-10-04T22:02:18.265Z,98801.13
2022-10-04T22:04:44.431Z,98807.13
2022-10-04T22:07:10.538Z,98795.16
2022-10-04T22:09:36.646Z,98801.59
2022-10-04T22:12:02.723Z,98804.06
2022-10-04T22:14:28.815Z,98793.41
2022-10-04T22:16:55.003Z,98803.41
2022-10-04T22:19:21.155Z,98796.81
2022-10-04T22:21:47.252Z,98799.22
2022-10-04T22:24:13.352Z,98805.72
2022-10-04T22:26:39.452Z,98805.16
2022-10-04T22:29:05.543Z,98791.09
2022-10-04T22:31:31.690Z,98799.75
2022-10-04T22:33:57.818Z,98801.78
2022-10-04T22:36:23.909Z,98801.94
2022-10-04T22:38:49.999Z,98814.06
2022-10-04T22:41:16.112Z,98799.81
2022-10-04T22:43:42.207Z,98791.94
2022-10-04T22:46:08.335Z,98772.00
2022-10-04T22:48:34.452Z,98782.00
2022-10-04T22:51:00.565Z,98780.50
2022-10-04T22:53:26.714Z,98776.03
2022-10-04T22:55:52.813Z,98782.34
2022-10-04T22:58:18.905Z,98772.34
2022-10-04T23:00:45.012Z,98760.22
2022-10-04T23:03:11.187Z,98760.22
2022-10-04T23:05:37.326Z,98758.34
2022-10-04T23:08:03.437Z,98777.16
2022-10-04T23:10:29.528Z,98779.34
2022-10-04T23:12:55.624Z,98785.13
2022-10-04T23:15:21.732Z,98779.97
2022-10-04T23:17:47.829Z,98778.41
2022-10-04T23:20:14.093Z,98777.94
2022-10-04T23:22:40.205Z,98783.34
2022-10-04T23:25:06.307Z,98783.16
2022-10-04T23:27:32.399Z,98781.88
2022-10-04T23:29:58.498Z,98777.16
2022-10-04T23:32:24.596Z,98780.47
2022-10-04T23:34:55.716Z,98782.31
2022-10-04T23:37:22.711Z,98782.22
2022-10-04T23:39:48.805Z,98777.50
2022-10-04T23:42:14.896Z,98781.78
2022-10-04T23:44:41.006Z,98771.97
2022-10-04T23:47:07.094Z,98762.78
2022-10-04T23:49:33.196Z,98763.31
2022-10-04T23:51:59.330Z,98763.53
2022-10-04T23:54:25.420Z,98763.25
2022-10-04T23:56:51.505Z,98762.06
2022-10-04T23:59:17.647Z,98763.13
